Terminal Aerodrome Forecast
Issued by NWS Pueblo, CO

Home | Current Version | Previous Version | Text Only | Print | Product List | Glossary On
Versions: 1 2 3 4 5 6 7 8 9 10 11 12 13 14 15 16 17 18 19 20 21 22 23 24 25 26 27
000
FTUS45 KPUB 161740
TAFCOS
TAF
KCOS 161740Z 1618/1718 34022G32KT P6SM VCSH SCT030 BKN070
     FM162000 35015G25KT P6SM VCSH SCT030 BKN070
     FM170000 35012KT P6SM SCT040 BKN080
     FM170300 36008KT P6SM VCSH SCT030 BKN060
     FM170900 36006KT P6SM VCSH BKN025
     FM171600 VRB05KT P6SM SCT100=

USA.gov is the U.S. government's official web portal to all federal, state and local government web resources and services.